sensor_id;sensor_type;location;lat;lon;timestamp;P1;durP1;ratioP1;P2;durP2;ratioP2
21168;SDS011;10742;51.816;8.662;2023-04-25T00:02:29;15.90;;;4.60;;
21168;SDS011;10742;51.816;8.662;2023-04-25T00:05:33;13.87;;;4.27;;
21168;SDS011;10742;51.816;8.662;2023-04-25T00:08:36;19.43;;;5.00;;
21168;SDS011;10742;51.816;8.662;2023-04-25T00:11:40;22.30;;;5.00;;
21168;SDS011;10742;51.816;8.662;2023-04-25T00:14:42;19.70;;;4.63;;
21168;SDS011;10742;51.816;8.662;2023-04-25T00:17:45;16.03;;;4.40;;
21168;SDS011;10742;51.816;8.662;2023-04-25T00:20:48;17.87;;;5.10;;
21168;SDS011;10742;51.816;8.662;2023-04-25T00:23:52;21.83;;;4.93;;
21168;SDS011;10742;51.816;8.662;2023-04-25T00:26:55;16.77;;;4.67;;
21168;SDS011;10742;51.816;8.662;2023-04-25T00:29:57;14.93;;;4.00;;
21168;SDS011;10742;51.816;8.662;2023-04-25T00:33:00;17.27;;;4.13;;
21168;SDS011;10742;51.816;8.662;2023-04-25T00:36:02;15.63;;;4.53;;
21168;SDS011;10742;51.816;8.662;2023-04-25T00:39:05;15.37;;;4.10;;
21168;SDS011;10742;51.816;8.662;2023-04-25T00:42:08;17.13;;;4.07;;
21168;SDS011;10742;51.816;8.662;2023-04-25T00:45:12;18.07;;;4.27;;
21168;SDS011;10742;51.816;8.662;2023-04-25T00:48:16;14.87;;;3.97;;
21168;SDS011;10742;51.816;8.662;2023-04-25T00:51:20;18.17;;;4.23;;
21168;SDS011;10742;51.816;8.662;2023-04-25T00:54:23;14.43;;;4.50;;
21168;SDS011;10742;51.816;8.662;2023-04-25T00:57:25;17.13;;;5.57;;
21168;SDS011;10742;51.816;8.662;2023-04-25T01:00:28;18.47;;;4.70;;
21168;SDS011;10742;51.816;8.662;2023-04-25T01:03:32;19.90;;;5.30;;
21168;SDS011;10742;51.816;8.662;2023-04-25T01:06:37;17.13;;;4.70;;
21168;SDS011;10742;51.816;8.662;2023-04-25T01:09:40;20.57;;;5.13;;
21168;SDS011;10742;51.816;8.662;2023-04-25T01:12:43;20.43;;;5.30;;
21168;SDS011;10742;51.816;8.662;2023-04-25T01:15:45;18.83;;;5.30;;
21168;SDS011;10742;51.816;8.662;2023-04-25T01:18:48;19.17;;;5.87;;
21168;SDS011;10742;51.816;8.662;2023-04-25T01:21:51;23.13;;;6.37;;
21168;SDS011;10742;51.816;8.662;2023-04-25T01:24:54;18.03;;;5.43;;
21168;SDS011;10742;51.816;8.662;2023-04-25T01:27:57;18.97;;;5.70;;
21168;SDS011;10742;51.816;8.662;2023-04-25T01:31:02;19.67;;;5.80;;
21168;SDS011;10742;51.816;8.662;2023-04-25T01:34:05;17.77;;;5.83;;
21168;SDS011;10742;51.816;8.662;2023-04-25T01:37:07;15.13;;;5.00;;
21168;SDS011;10742;51.816;8.662;2023-04-25T01:40:11;17.67;;;5.77;;
21168;SDS011;10742;51.816;8.662;2023-04-25T01:43:14;18.33;;;5.53;;
21168;SDS011;10742;51.816;8.662;2023-04-25T01:46:16;17.37;;;5.83;;
21168;SDS011;10742;51.816;8.662;2023-04-25T01:49:19;16.67;;;5.70;;
21168;SDS011;10742;51.816;8.662;2023-04-25T01:52:22;18.20;;;6.87;;
21168;SDS011;10742;51.816;8.662;2023-04-25T01:55:25;23.63;;;6.70;;
21168;SDS011;10742;51.816;8.662;2023-04-25T01:58:35;18.20;;;6.10;;
21168;SDS011;10742;51.816;8.662;2023-04-25T02:01:44;21.63;;;6.63;;
21168;SDS011;10742;51.816;8.662;2023-04-25T02:04:55;20.73;;;6.20;;
21168;SDS011;10742;51.816;8.662;2023-04-25T02:08:00;17.50;;;6.40;;
21168;SDS011;10742;51.816;8.662;2023-04-25T02:11:03;20.87;;;6.57;;
21168;SDS011;10742;51.816;8.662;2023-04-25T02:14:13;23.07;;;6.80;;
21168;SDS011;10742;51.816;8.662;2023-04-25T02:17:50;19.37;;;6.90;;
21168;SDS011;10742;51.816;8.662;2023-04-25T02:20:56;21.57;;;6.67;;
21168;SDS011;10742;51.816;8.662;2023-04-25T02:23:59;18.37;;;6.80;;
21168;SDS011;10742;51.816;8.662;2023-04-25T02:27:03;19.77;;;6.07;;
21168;SDS011;10742;51.816;8.662;2023-04-25T02:30:06;16.57;;;6.70;;
21168;SDS011;10742;51.816;8.662;2023-04-25T02:33:09;19.10;;;6.20;;
21168;SDS011;10742;51.816;8.662;2023-04-25T02:36:12;18.30;;;6.90;;
21168;SDS011;10742;51.816;8.662;2023-04-25T02:39:16;16.33;;;6.87;;
21168;SDS011;10742;51.816;8.662;2023-04-25T02:42:18;17.87;;;6.63;;
21168;SDS011;10742;51.816;8.662;2023-04-25T02:45:21;16.83;;;6.33;;
21168;SDS011;10742;51.816;8.662;2023-04-25T02:48:24;18.93;;;6.03;;
21168;SDS011;10742;51.816;8.662;2023-04-25T02:51:26;14.70;;;5.90;;
21168;SDS011;10742;51.816;8.662;2023-04-25T02:54:29;16.33;;;6.00;;
21168;SDS011;10742;51.816;8.662;2023-04-25T02:57:33;16.10;;;5.87;;
21168;SDS011;10742;51.816;8.662;2023-04-25T03:00:36;15.60;;;5.50;;
21168;SDS011;10742;51.816;8.662;2023-04-25T03:03:38;16.83;;;5.73;;
21168;SDS011;10742;51.816;8.662;2023-04-25T03:06:41;16.43;;;6.20;;
21168;SDS011;10742;51.816;8.662;2023-04-25T03:09:44;18.03;;;6.03;;
21168;SDS011;10742;51.816;8.662;2023-04-25T03:12:47;15.37;;;6.00;;
21168;SDS011;10742;51.816;8.662;2023-04-25T03:15:49;16.10;;;5.93;;
21168;SDS011;10742;51.816;8.662;2023-04-25T03:18:53;14.47;;;5.63;;
21168;SDS011;10742;51.816;8.662;2023-04-25T03:21:55;17.17;;;5.77;;
21168;SDS011;10742;51.816;8.662;2023-04-25T03:24:58;14.90;;;5.83;;
21168;SDS011;10742;51.816;8.662;2023-04-25T03:28:00;15.47;;;5.23;;
21168;SDS011;10742;51.816;8.662;2023-04-25T03:31:03;15.27;;;5.37;;
21168;SDS011;10742;51.816;8.662;2023-04-25T03:34:06;11.90;;;4.37;;
21168;SDS011;10742;51.816;8.662;2023-04-25T03:37:08;17.30;;;3.90;;
21168;SDS011;10742;51.816;8.662;2023-04-25T03:40:12;12.53;;;3.87;;
21168;SDS011;10742;51.816;8.662;2023-04-25T03:43:35;16.13;;;4.50;;
21168;SDS011;10742;51.816;8.662;2023-04-25T03:46:41;17.53;;;4.23;;
21168;SDS011;10742;51.816;8.662;2023-04-25T03:49:44;14.97;;;4.33;;
21168;SDS011;10742;51.816;8.662;2023-04-25T03:52:47;12.70;;;4.03;;
21168;SDS011;10742;51.816;8.662;2023-04-25T03:55:49;12.93;;;4.10;;
21168;SDS011;10742;51.816;8.662;2023-04-25T03:58:52;17.43;;;4.07;;
21168;SDS011;10742;51.816;8.662;2023-04-25T04:01:57;14.53;;;4.00;;
21168;SDS011;10742;51.816;8.662;2023-04-25T04:05:00;10.73;;;3.47;;
21168;SDS011;10742;51.816;8.662;2023-04-25T04:08:04;13.40;;;3.53;;
21168;SDS011;10742;51.816;8.662;2023-04-25T04:11:08;10.00;;;3.33;;
21168;SDS011;10742;51.816;8.662;2023-04-25T04:14:11;11.03;;;3.10;;
21168;SDS011;10742;51.816;8.662;2023-04-25T04:17:18;15.07;;;3.40;;
21168;SDS011;10742;51.816;8.662;2023-04-25T04:20:21;11.20;;;3.20;;
21168;SDS011;10742;51.816;8.662;2023-04-25T04:23:23;12.50;;;3.40;;
21168;SDS011;10742;51.816;8.662;2023-04-25T04:26:26;8.43;;;3.60;;
21168;SDS011;10742;51.816;8.662;2023-04-25T04:29:34;11.13;;;3.60;;
21168;SDS011;10742;51.816;8.662;2023-04-25T04:32:42;13.73;;;3.63;;
21168;SDS011;10742;51.816;8.662;2023-04-25T04:35:45;12.90;;;3.83;;
21168;SDS011;10742;51.816;8.662;2023-04-25T04:38:50;13.53;;;4.07;;
21168;SDS011;10742;51.816;8.662;2023-04-25T04:42:07;14.53;;;4.07;;
21168;SDS011;10742;51.816;8.662;2023-04-25T04:45:33;16.67;;;4.00;;
21168;SDS011;10742;51.816;8.662;2023-04-25T04:49:11;15.67;;;4.17;;
21168;SDS011;10742;51.816;8.662;2023-04-25T04:52:41;15.57;;;3.90;;
21168;SDS011;10742;51.816;8.662;2023-04-25T04:56:06;18.77;;;4.13;;
21168;SDS011;10742;51.816;8.662;2023-04-25T04:59:27;15.60;;;3.87;;
21168;SDS011;10742;51.816;8.662;2023-04-25T05:02:56;19.10;;;3.93;;
21168;SDS011;10742;51.816;8.662;2023-04-25T05:06:27;15.57;;;3.90;;
21168;SDS011;10742;51.816;8.662;2023-04-25T05:10:03;14.20;;;3.50;;
21168;SDS011;10742;51.816;8.662;2023-04-25T05:13:18;12.47;;;4.43;;
21168;SDS011;10742;51.816;8.662;2023-04-25T05:16:46;14.13;;;3.63;;
21168;SDS011;10742;51.816;8.662;2023-04-25T05:19:58;16.93;;;4.60;;
21168;SDS011;10742;51.816;8.662;2023-04-25T05:23:19;24.90;;;4.70;;
21168;SDS011;10742;51.816;8.662;2023-04-25T05:26:51;24.70;;;4.03;;
21168;SDS011;10742;51.816;8.662;2023-04-25T05:30:07;14.73;;;3.83;;
21168;SDS011;10742;51.816;8.662;2023-04-25T05:33:30;19.67;;;4.57;;
21168;SDS011;10742;51.816;8.662;2023-04-25T05:36:34;14.50;;;4.27;;
21168;SDS011;10742;51.816;8.662;2023-04-25T05:39:36;16.37;;;4.07;;
21168;SDS011;10742;51.816;8.662;2023-04-25T05:42:59;12.37;;;3.73;;
21168;SDS011;10742;51.816;8.662;2023-04-25T05:46:20;19.80;;;3.87;;
21168;SDS011;10742;51.816;8.662;2023-04-25T05:49:38;15.83;;;3.57;;
21168;SDS011;10742;51.816;8.662;2023-04-25T05:52:58;16.70;;;3.70;;
21168;SDS011;10742;51.816;8.662;2023-04-25T05:56:12;19.70;;;3.83;;
21168;SDS011;10742;51.816;8.662;2023-04-25T05:59:15;22.97;;;4.37;;
21168;SDS011;10742;51.816;8.662;2023-04-25T06:02:18;25.33;;;4.20;;
21168;SDS011;10742;51.816;8.662;2023-04-25T06:05:22;15.57;;;3.87;;
21168;SDS011;10742;51.816;8.662;2023-04-25T06:08:25;19.27;;;4.53;;
21168;SDS011;10742;51.816;8.662;2023-04-25T06:11:27;15.23;;;4.23;;
21168;SDS011;10742;51.816;8.662;2023-04-25T06:14:30;14.40;;;3.60;;
21168;SDS011;10742;51.816;8.662;2023-04-25T06:17:33;17.03;;;3.83;;
21168;SDS011;10742;51.816;8.662;2023-04-25T06:20:36;20.63;;;3.77;;
21168;SDS011;10742;51.816;8.662;2023-04-25T06:23:38;19.37;;;4.10;;
21168;SDS011;10742;51.816;8.662;2023-04-25T06:26:43;16.97;;;4.00;;
21168;SDS011;10742;51.816;8.662;2023-04-25T06:29:46;14.03;;;3.73;;
21168;SDS011;10742;51.816;8.662;2023-04-25T06:32:49;16.13;;;4.00;;
21168;SDS011;10742;51.816;8.662;2023-04-25T06:35:51;18.97;;;3.70;;
21168;SDS011;10742;51.816;8.662;2023-04-25T06:38:58;18.70;;;4.00;;
21168;SDS011;10742;51.816;8.662;2023-04-25T06:42:01;23.30;;;4.07;;
21168;SDS011;10742;51.816;8.662;2023-04-25T06:45:19;20.53;;;4.50;;
21168;SDS011;10742;51.816;8.662;2023-04-25T06:48:22;19.97;;;4.10;;
21168;SDS011;10742;51.816;8.662;2023-04-25T06:51:25;17.27;;;4.20;;
21168;SDS011;10742;51.816;8.662;2023-04-25T06:54:30;17.87;;;3.67;;
21168;SDS011;10742;51.816;8.662;2023-04-25T06:57:44;20.40;;;4.03;;
21168;SDS011;10742;51.816;8.662;2023-04-25T07:01:07;17.33;;;3.67;;
21168;SDS011;10742;51.816;8.662;2023-04-25T07:04:10;14.97;;;3.43;;
21168;SDS011;10742;51.816;8.662;2023-04-25T07:07:18;19.60;;;4.10;;
21168;SDS011;10742;51.816;8.662;2023-04-25T07:10:28;17.93;;;3.63;;
21168;SDS011;10742;51.816;8.662;2023-04-25T07:13:31;20.93;;;4.07;;
21168;SDS011;10742;51.816;8.662;2023-04-25T07:16:34;18.87;;;3.80;;
21168;SDS011;10742;51.816;8.662;2023-04-25T07:19:36;16.17;;;3.23;;
21168;SDS011;10742;51.816;8.662;2023-04-25T07:22:42;21.07;;;3.60;;
21168;SDS011;10742;51.816;8.662;2023-04-25T07:25:46;13.93;;;3.53;;
21168;SDS011;10742;51.816;8.662;2023-04-25T07:28:53;20.27;;;3.37;;
21168;SDS011;10742;51.816;8.662;2023-04-25T07:31:56;16.43;;;3.47;;
21168;SDS011;10742;51.816;8.662;2023-04-25T07:34:58;19.10;;;3.70;;
21168;SDS011;10742;51.816;8.662;2023-04-25T07:38:02;18.67;;;3.37;;
21168;SDS011;10742;51.816;8.662;2023-04-25T07:41:05;22.70;;;3.63;;
21168;SDS011;10742;51.816;8.662;2023-04-25T07:44:08;17.70;;;3.60;;
21168;SDS011;10742;51.816;8.662;2023-04-25T07:47:10;16.10;;;3.60;;
21168;SDS011;10742;51.816;8.662;2023-04-25T07:50:15;16.40;;;3.77;;
21168;SDS011;10742;51.816;8.662;2023-04-25T07:53:18;19.90;;;3.57;;
21168;SDS011;10742;51.816;8.662;2023-04-25T07:56:27;16.50;;;3.20;;
21168;SDS011;10742;51.816;8.662;2023-04-25T07:59:31;14.37;;;3.23;;
21168;SDS011;10742;51.816;8.662;2023-04-25T08:02:37;11.97;;;3.00;;
21168;SDS011;10742;51.816;8.662;2023-04-25T08:05:40;14.93;;;3.37;;
21168;SDS011;10742;51.816;8.662;2023-04-25T08:08:42;16.17;;;3.40;;
21168;SDS011;10742;51.816;8.662;2023-04-25T08:11:48;13.10;;;3.17;;
21168;SDS011;10742;51.816;8.662;2023-04-25T08:14:55;20.27;;;3.40;;
21168;SDS011;10742;51.816;8.662;2023-04-25T08:18:00;11.57;;;2.80;;
21168;SDS011;10742;51.816;8.662;2023-04-25T08:21:04;14.23;;;2.77;;
21168;SDS011;10742;51.816;8.662;2023-04-25T08:24:08;11.50;;;3.00;;
21168;SDS011;10742;51.816;8.662;2023-04-25T08:27:13;17.53;;;3.27;;
21168;SDS011;10742;51.816;8.662;2023-04-25T08:30:16;14.60;;;2.60;;
21168;SDS011;10742;51.816;8.662;2023-04-25T08:33:19;14.30;;;3.00;;
21168;SDS011;10742;51.816;8.662;2023-04-25T08:36:51;15.70;;;3.03;;
21168;SDS011;10742;51.816;8.662;2023-04-25T08:40:13;12.33;;;2.63;;
21168;SDS011;10742;51.816;8.662;2023-04-25T08:43:48;12.87;;;2.97;;
21168;SDS011;10742;51.816;8.662;2023-04-25T08:47:12;11.93;;;2.93;;
21168;SDS011;10742;51.816;8.662;2023-04-25T08:50:51;15.70;;;2.70;;
21168;SDS011;10742;51.816;8.662;2023-04-25T08:54:14;14.07;;;2.77;;
21168;SDS011;10742;51.816;8.662;2023-04-25T08:57:43;18.20;;;2.70;;
21168;SDS011;10742;51.816;8.662;2023-04-25T09:01:05;13.80;;;2.97;;
21168;SDS011;10742;51.816;8.662;2023-04-25T09:04:16;13.70;;;2.60;;
21168;SDS011;10742;51.816;8.662;2023-04-25T09:07:22;18.87;;;2.50;;
21168;SDS011;10742;51.816;8.662;2023-04-25T09:10:24;10.27;;;2.57;;
21168;SDS011;10742;51.816;8.662;2023-04-25T09:13:29;16.80;;;2.70;;
21168;SDS011;10742;51.816;8.662;2023-04-25T09:20:25;13.90;;;2.70;;
21168;SDS011;10742;51.816;8.662;2023-04-25T09:23:28;9.30;;;2.50;;
21168;SDS011;10742;51.816;8.662;2023-04-25T09:26:31;16.53;;;2.43;;
21168;SDS011;10742;51.816;8.662;2023-04-25T09:29:36;8.83;;;2.37;;
21168;SDS011;10742;51.816;8.662;2023-04-25T09:32:40;8.23;;;2.53;;
21168;SDS011;10742;51.816;8.662;2023-04-25T09:35:45;9.70;;;2.67;;
21168;SDS011;10742;51.816;8.662;2023-04-25T09:38:57;13.27;;;2.70;;
21168;SDS011;10742;51.816;8.662;2023-04-25T09:42:11;13.70;;;2.93;;
21168;SDS011;10742;51.816;8.662;2023-04-25T09:45:14;8.83;;;2.43;;
21168;SDS011;10742;51.816;8.662;2023-04-25T09:48:19;13.13;;;2.30;;
21168;SDS011;10742;51.816;8.662;2023-04-25T09:51:26;11.63;;;2.13;;
21168;SDS011;10742;51.816;8.662;2023-04-25T09:54:32;9.87;;;2.17;;
21168;SDS011;10742;51.816;8.662;2023-04-25T09:57:42;16.93;;;2.87;;
21168;SDS011;10742;51.816;8.662;2023-04-25T10:00:47;13.47;;;2.43;;
21168;SDS011;10742;51.816;8.662;2023-04-25T10:04:02;10.67;;;2.47;;
21168;SDS011;10742;51.816;8.662;2023-04-25T10:07:17;9.80;;;2.20;;
21168;SDS011;10742;51.816;8.662;2023-04-25T10:10:21;10.23;;;2.17;;
21168;SDS011;10742;51.816;8.662;2023-04-25T10:13:28;7.67;;;2.20;;
21168;SDS011;10742;51.816;8.662;2023-04-25T10:16:32;10.20;;;2.13;;
21168;SDS011;10742;51.816;8.662;2023-04-25T10:19:35;11.57;;;2.33;;
21168;SDS011;10742;51.816;8.662;2023-04-25T10:22:44;7.47;;;2.20;;
21168;SDS011;10742;51.816;8.662;2023-04-25T10:25:50;11.20;;;2.67;;
21168;SDS011;10742;51.816;8.662;2023-04-25T10:28:57;6.13;;;2.00;;
21168;SDS011;10742;51.816;8.662;2023-04-25T10:32:01;3.57;;;1.80;;
21168;SDS011;10742;51.816;8.662;2023-04-25T10:38:14;11.13;;;1.97;;
21168;SDS011;10742;51.816;8.662;2023-04-25T10:41:20;9.00;;;1.87;;
21168;SDS011;10742;51.816;8.662;2023-04-25T10:44:31;4.20;;;1.80;;
21168;SDS011;10742;51.816;8.662;2023-04-25T10:47:34;8.37;;;2.30;;
21168;SDS011;10742;51.816;8.662;2023-04-25T10:50:38;6.07;;;2.10;;
21168;SDS011;10742;51.816;8.662;2023-04-25T10:53:47;5.50;;;2.00;;
21168;SDS011;10742;51.816;8.662;2023-04-25T10:56:58;7.60;;;2.23;;
21168;SDS011;10742;51.816;8.662;2023-04-25T11:03:07;10.03;;;2.20;;
21168;SDS011;10742;51.816;8.662;2023-04-25T11:06:22;5.87;;;1.80;;
21168;SDS011;10742;51.816;8.662;2023-04-25T11:09:32;6.43;;;1.80;;
21168;SDS011;10742;51.816;8.662;2023-04-25T11:12:35;5.57;;;1.67;;
21168;SDS011;10742;51.816;8.662;2023-04-25T11:15:38;6.90;;;2.03;;
21168;SDS011;10742;51.816;8.662;2023-04-25T11:18:44;8.97;;;1.83;;
21168;SDS011;10742;51.816;8.662;2023-04-25T11:21:46;11.90;;;2.30;;
21168;SDS011;10742;51.816;8.662;2023-04-25T11:24:49;8.60;;;2.40;;
21168;SDS011;10742;51.816;8.662;2023-04-25T11:27:53;9.93;;;1.97;;
21168;SDS011;10742;51.816;8.662;2023-04-25T11:30:58;8.77;;;2.10;;
21168;SDS011;10742;51.816;8.662;2023-04-25T11:34:01;8.27;;;2.03;;
21168;SDS011;10742;51.816;8.662;2023-04-25T11:37:04;9.07;;;2.13;;
21168;SDS011;10742;51.816;8.662;2023-04-25T11:40:08;5.20;;;1.90;;
21168;SDS011;10742;51.816;8.662;2023-04-25T11:43:11;4.33;;;2.10;;
21168;SDS011;10742;51.816;8.662;2023-04-25T11:46:15;9.43;;;2.10;;
21168;SDS011;10742;51.816;8.662;2023-04-25T11:49:17;10.90;;;1.93;;
21168;SDS011;10742;51.816;8.662;2023-04-25T11:52:20;5.87;;;1.87;;
21168;SDS011;10742;51.816;8.662;2023-04-25T11:55:22;8.30;;;2.20;;
21168;SDS011;10742;51.816;8.662;2023-04-25T11:58:25;9.37;;;2.10;;
21168;SDS011;10742;51.816;8.662;2023-04-25T12:01:32;7.70;;;1.53;;
21168;SDS011;10742;51.816;8.662;2023-04-25T12:04:35;9.00;;;1.97;;
21168;SDS011;10742;51.816;8.662;2023-04-25T12:07:38;4.50;;;1.80;;
21168;SDS011;10742;51.816;8.662;2023-04-25T12:10:42;7.00;;;1.90;;
21168;SDS011;10742;51.816;8.662;2023-04-25T12:13:51;8.93;;;1.93;;
21168;SDS011;10742;51.816;8.662;2023-04-25T12:16:55;5.70;;;1.80;;
21168;SDS011;10742;51.816;8.662;2023-04-25T12:20:05;7.77;;;2.00;;
21168;SDS011;10742;51.816;8.662;2023-04-25T12:23:15;5.27;;;1.57;;
21168;SDS011;10742;51.816;8.662;2023-04-25T12:26:18;7.70;;;1.93;;
21168;SDS011;10742;51.816;8.662;2023-04-25T12:29:23;6.47;;;2.03;;
21168;SDS011;10742;51.816;8.662;2023-04-25T12:32:28;8.77;;;1.80;;
21168;SDS011;10742;51.816;8.662;2023-04-25T12:35:31;7.30;;;1.83;;
21168;SDS011;10742;51.816;8.662;2023-04-25T12:38:41;6.37;;;1.93;;
21168;SDS011;10742;51.816;8.662;2023-04-25T12:41:43;5.97;;;1.70;;
21168;SDS011;10742;51.816;8.662;2023-04-25T12:44:46;4.30;;;1.60;;
21168;SDS011;10742;51.816;8.662;2023-04-25T12:47:49;7.43;;;1.90;;
21168;SDS011;10742;51.816;8.662;2023-04-25T12:50:51;6.17;;;1.60;;
21168;SDS011;10742;51.816;8.662;2023-04-25T12:53:54;4.03;;;1.43;;
21168;SDS011;10742;51.816;8.662;2023-04-25T12:56:57;5.70;;;1.33;;
21168;SDS011;10742;51.816;8.662;2023-04-25T13:00:00;9.30;;;2.00;;
21168;SDS011;10742;51.816;8.662;2023-04-25T13:03:02;7.17;;;1.70;;
21168;SDS011;10742;51.816;8.662;2023-04-25T13:06:06;9.70;;;1.77;;
21168;SDS011;10742;51.816;8.662;2023-04-25T13:09:09;6.57;;;1.90;;
21168;SDS011;10742;51.816;8.662;2023-04-25T13:12:14;2.70;;;1.30;;
21168;SDS011;10742;51.816;8.662;2023-04-25T13:15:17;4.10;;;1.17;;
21168;SDS011;10742;51.816;8.662;2023-04-25T13:18:20;4.00;;;1.50;;
21168;SDS011;10742;51.816;8.662;2023-04-25T13:21:22;5.80;;;1.70;;
21168;SDS011;10742;51.816;8.662;2023-04-25T13:24:25;4.80;;;1.93;;
21168;SDS011;10742;51.816;8.662;2023-04-25T13:27:27;5.70;;;1.87;;
21168;SDS011;10742;51.816;8.662;2023-04-25T13:30:30;5.10;;;1.57;;
21168;SDS011;10742;51.816;8.662;2023-04-25T13:33:33;6.93;;;1.70;;
21168;SDS011;10742;51.816;8.662;2023-04-25T13:36:35;8.97;;;1.70;;
21168;SDS011;10742;51.816;8.662;2023-04-25T13:39:38;4.97;;;1.50;;
21168;SDS011;10742;51.816;8.662;2023-04-25T13:42:40;8.53;;;1.53;;
21168;SDS011;10742;51.816;8.662;2023-04-25T13:45:43;4.60;;;1.30;;
21168;SDS011;10742;51.816;8.662;2023-04-25T13:48:45;2.47;;;1.13;;
21168;SDS011;10742;51.816;8.662;2023-04-25T13:51:50;3.73;;;1.43;;
21168;SDS011;10742;51.816;8.662;2023-04-25T13:54:52;4.10;;;1.20;;
21168;SDS011;10742;51.816;8.662;2023-04-25T13:57:55;4.53;;;1.50;;
21168;SDS011;10742;51.816;8.662;2023-04-25T14:00:57;2.63;;;1.20;;
21168;SDS011;10742;51.816;8.662;2023-04-25T14:04:00;4.87;;;1.60;;
21168;SDS011;10742;51.816;8.662;2023-04-25T14:07:03;4.53;;;1.37;;
21168;SDS011;10742;51.816;8.662;2023-04-25T14:10:06;5.23;;;1.30;;
21168;SDS011;10742;51.816;8.662;2023-04-25T14:13:09;3.43;;;1.37;;
21168;SDS011;10742;51.816;8.662;2023-04-25T14:16:12;5.23;;;1.27;;
21168;SDS011;10742;51.816;8.662;2023-04-25T14:19:14;4.50;;;1.50;;
21168;SDS011;10742;51.816;8.662;2023-04-25T14:22:17;7.43;;;1.50;;
21168;SDS011;10742;51.816;8.662;2023-04-25T14:25:20;4.87;;;1.43;;
21168;SDS011;10742;51.816;8.662;2023-04-25T14:28:23;8.30;;;1.60;;
21168;SDS011;10742;51.816;8.662;2023-04-25T14:31:26;2.97;;;0.87;;
21168;SDS011;10742;51.816;8.662;2023-04-25T14:34:28;3.00;;;1.27;;
21168;SDS011;10742;51.816;8.662;2023-04-25T14:37:31;5.63;;;1.37;;
21168;SDS011;10742;51.816;8.662;2023-04-25T14:40:33;4.53;;;1.67;;
21168;SDS011;10742;51.816;8.662;2023-04-25T14:43:36;6.37;;;1.67;;
21168;SDS011;10742;51.816;8.662;2023-04-25T14:46:38;10.13;;;2.20;;
21168;SDS011;10742;51.816;8.662;2023-04-25T14:49:41;6.77;;;1.90;;
21168;SDS011;10742;51.816;8.662;2023-04-25T14:52:43;5.40;;;1.83;;
21168;SDS011;10742;51.816;8.662;2023-04-25T14:55:46;7.70;;;1.83;;
21168;SDS011;10742;51.816;8.662;2023-04-25T14:58:50;7.90;;;2.03;;
21168;SDS011;10742;51.816;8.662;2023-04-25T15:01:52;8.40;;;2.10;;
21168;SDS011;10742;51.816;8.662;2023-04-25T15:04:55;5.13;;;1.53;;
21168;SDS011;10742;51.816;8.662;2023-04-25T15:07:58;4.13;;;1.63;;
21168;SDS011;10742;51.816;8.662;2023-04-25T15:11:01;7.90;;;1.50;;
21168;SDS011;10742;51.816;8.662;2023-04-25T15:14:04;7.57;;;1.90;;
21168;SDS011;10742;51.816;8.662;2023-04-25T15:17:07;4.60;;;1.80;;
21168;SDS011;10742;51.816;8.662;2023-04-25T15:20:10;6.53;;;1.80;;
21168;SDS011;10742;51.816;8.662;2023-04-25T15:23:14;6.13;;;1.80;;
21168;SDS011;10742;51.816;8.662;2023-04-25T15:26:17;3.30;;;1.80;;
21168;SDS011;10742;51.816;8.662;2023-04-25T15:29:20;6.17;;;1.70;;
21168;SDS011;10742;51.816;8.662;2023-04-25T15:32:23;8.07;;;2.00;;
21168;SDS011;10742;51.816;8.662;2023-04-25T15:35:25;5.37;;;1.60;;
21168;SDS011;10742;51.816;8.662;2023-04-25T15:38:28;4.33;;;1.80;;
21168;SDS011;10742;51.816;8.662;2023-04-25T15:41:32;11.40;;;2.13;;
21168;SDS011;10742;51.816;8.662;2023-04-25T15:44:37;6.17;;;1.93;;
21168;SDS011;10742;51.816;8.662;2023-04-25T15:47:39;6.10;;;1.70;;
21168;SDS011;10742;51.816;8.662;2023-04-25T15:50:42;6.57;;;1.70;;
21168;SDS011;10742;51.816;8.662;2023-04-25T15:53:45;6.33;;;1.60;;
21168;SDS011;10742;51.816;8.662;2023-04-25T15:56:48;6.43;;;1.63;;
21168;SDS011;10742;51.816;8.662;2023-04-25T15:59:50;6.27;;;1.50;;
21168;SDS011;10742;51.816;8.662;2023-04-25T16:02:53;3.57;;;2.00;;
21168;SDS011;10742;51.816;8.662;2023-04-25T16:05:55;7.13;;;2.23;;
21168;SDS011;10742;51.816;8.662;2023-04-25T16:08:58;4.83;;;2.00;;
21168;SDS011;10742;51.816;8.662;2023-04-25T16:12:01;7.07;;;1.90;;
21168;SDS011;10742;51.816;8.662;2023-04-25T16:15:04;7.60;;;2.33;;
21168;SDS011;10742;51.816;8.662;2023-04-25T16:18:07;9.27;;;2.07;;
21168;SDS011;10742;51.816;8.662;2023-04-25T16:21:09;6.93;;;2.20;;
21168;SDS011;10742;51.816;8.662;2023-04-25T16:24:18;5.87;;;1.87;;
21168;SDS011;10742;51.816;8.662;2023-04-25T16:27:20;4.80;;;1.80;;
21168;SDS011;10742;51.816;8.662;2023-04-25T16:30:23;3.90;;;1.77;;
21168;SDS011;10742;51.816;8.662;2023-04-25T16:33:25;6.27;;;1.47;;
21168;SDS011;10742;51.816;8.662;2023-04-25T16:36:28;4.90;;;1.40;;
21168;SDS011;10742;51.816;8.662;2023-04-25T16:39:30;4.47;;;2.10;;
21168;SDS011;10742;51.816;8.662;2023-04-25T16:42:33;6.80;;;2.00;;
21168;SDS011;10742;51.816;8.662;2023-04-25T16:45:35;7.27;;;1.73;;
21168;SDS011;10742;51.816;8.662;2023-04-25T16:48:38;3.90;;;1.70;;
21168;SDS011;10742;51.816;8.662;2023-04-25T16:51:59;6.93;;;2.03;;
21168;SDS011;10742;51.816;8.662;2023-04-25T16:55:21;6.30;;;2.03;;
21168;SDS011;10742;51.816;8.662;2023-04-25T16:58:42;3.50;;;1.80;;
21168;SDS011;10742;51.816;8.662;2023-04-25T17:02:04;5.80;;;1.60;;
21168;SDS011;10742;51.816;8.662;2023-04-25T17:05:06;7.47;;;2.03;;
21168;SDS011;10742;51.816;8.662;2023-04-25T17:08:09;9.13;;;2.10;;
21168;SDS011;10742;51.816;8.662;2023-04-25T17:11:12;4.90;;;1.73;;
21168;SDS011;10742;51.816;8.662;2023-04-25T17:14:14;4.63;;;2.00;;
21168;SDS011;10742;51.816;8.662;2023-04-25T17:17:17;6.77;;;1.83;;
21168;SDS011;10742;51.816;8.662;2023-04-25T17:20:19;8.90;;;2.67;;
21168;SDS011;10742;51.816;8.662;2023-04-25T17:23:22;8.27;;;2.17;;
21168;SDS011;10742;51.816;8.662;2023-04-25T17:26:25;7.87;;;2.33;;
21168;SDS011;10742;51.816;8.662;2023-04-25T17:29:27;6.73;;;2.03;;
21168;SDS011;10742;51.816;8.662;2023-04-25T17:32:30;5.40;;;1.90;;
21168;SDS011;10742;51.816;8.662;2023-04-25T17:35:32;7.07;;;1.73;;
21168;SDS011;10742;51.816;8.662;2023-04-25T17:38:35;4.13;;;1.77;;
21168;SDS011;10742;51.816;8.662;2023-04-25T17:41:39;6.53;;;1.63;;
21168;SDS011;10742;51.816;8.662;2023-04-25T17:44:42;6.27;;;1.67;;
21168;SDS011;10742;51.816;8.662;2023-04-25T17:47:45;4.40;;;1.50;;
21168;SDS011;10742;51.816;8.662;2023-04-25T17:50:47;4.40;;;1.40;;
21168;SDS011;10742;51.816;8.662;2023-04-25T17:53:50;4.23;;;1.43;;
21168;SDS011;10742;51.816;8.662;2023-04-25T17:56:53;13.00;;;4.20;;
21168;SDS011;10742;51.816;8.662;2023-04-25T17:59:55;6.93;;;2.10;;
21168;SDS011;10742;51.816;8.662;2023-04-25T18:02:58;7.03;;;1.70;;
21168;SDS011;10742;51.816;8.662;2023-04-25T18:06:01;4.57;;;1.67;;
21168;SDS011;10742;51.816;8.662;2023-04-25T18:09:05;5.40;;;1.73;;
21168;SDS011;10742;51.816;8.662;2023-04-25T18:12:24;4.50;;;1.63;;
21168;SDS011;10742;51.816;8.662;2023-04-25T18:15:28;4.30;;;1.80;;
21168;SDS011;10742;51.816;8.662;2023-04-25T18:18:31;4.97;;;1.63;;
21168;SDS011;10742;51.816;8.662;2023-04-25T18:21:37;4.73;;;1.70;;
21168;SDS011;10742;51.816;8.662;2023-04-25T18:24:40;6.17;;;1.87;;
21168;SDS011;10742;51.816;8.662;2023-04-25T18:27:45;5.93;;;1.93;;
21168;SDS011;10742;51.816;8.662;2023-04-25T18:30:48;7.87;;;1.97;;
21168;SDS011;10742;51.816;8.662;2023-04-25T18:33:51;8.27;;;1.90;;
21168;SDS011;10742;51.816;8.662;2023-04-25T18:36:54;6.97;;;1.83;;
21168;SDS011;10742;51.816;8.662;2023-04-25T18:39:57;7.07;;;2.00;;
21168;SDS011;10742;51.816;8.662;2023-04-25T18:43:00;6.50;;;2.00;;